Time;durP1;ratioP1;P1;durP2;ratioP2;P2;SDS_P1;SDS_P2;PMS_P1;PMS_P2;Temp;Humidity;BMP_temperature;BMP_pressure;BME280_temperature;BME280_humidity;BME280_pressure;Samples;Min_cycle;Max_cycle;Signal;HPM_P1;HPM_P2
2023/03/26 00:01:45;;;;;;;24.35;3.05;;;;;;;-146.27;100.00;83943.31;5086130;28;20137;-71
2023/03/26 00:04:10;;;;;;;13.20;2.30;;;;;;;-146.27;100.00;83985.53;5092514;28;20463;-72
2023/03/26 00:06:37;;;;;;;13.57;1.70;;;;;;;-146.27;100.00;83971.47;5092783;28;20020;-71
2023/03/26 00:09:06;;;;;;;12.82;2.28;;;;;;;-146.27;100.00;83989.53;5088857;28;20363;-73
2023/03/26 00:11:31;;;;;;;7.50;2.55;;;;;;;-146.27;100.00;84019.69;5089310;28;20028;-73
2023/03/26 00:13:57;;;;;;;9.88;2.10;;;;;;;-146.27;100.00;84007.63;5092401;28;20166;-72
2023/03/26 00:16:28;;;;;;;10.77;2.55;;;;;;;-146.27;100.00;84013.66;5084855;28;20024;-72
2023/03/26 00:18:53;;;;;;;21.20;2.42;;;;;;;-146.27;100.00;84017.69;5085118;28;20385;-72
2023/03/26 00:21:30;;;;;;;10.77;2.15;;;;;;;-146.27;100.00;83967.44;5084455;28;20020;-73
2023/03/26 00:23:59;;;;;;;10.00;1.85;;;;;;;-146.27;100.00;83983.50;5082823;28;20027;-72
2023/03/26 00:26:26;;;;;;;15.98;3.35;;;;;;;-146.27;100.00;83985.53;5088132;28;20369;-73
2023/03/26 00:28:51;;;;;;;20.77;2.67;;;;;;;-146.27;100.00;83995.56;5084105;28;20036;-72
2023/03/26 00:31:17;;;;;;;23.15;2.42;;;;;;;-146.27;100.00;83983.50;5090027;28;20028;-72
2023/03/26 00:33:43;;;;;;;18.65;2.70;;;;;;;-146.27;100.00;83991.56;5084440;28;20061;-72
2023/03/26 00:36:16;;;;;;;15.05;2.38;;;;;;;-146.27;100.00;83983.50;5079292;28;20036;-72
2023/03/26 00:38:42;;;;;;;21.13;2.58;;;;;;;-146.27;100.00;83979.50;5092333;28;20376;-73
2023/03/26 00:41:16;;;;;;;16.23;3.03;;;;;;;-146.27;100.00;84015.66;5089171;28;20111;-72
2023/03/26 00:43:45;;;;;;;18.52;4.03;;;;;;;-146.27;100.00;83981.50;5086243;28;20505;-72
2023/03/26 00:46:10;;;;;;;13.38;2.55;;;;;;;-146.27;100.00;83997.56;5087474;28;20484;-72
2023/03/26 00:48:37;;;;;;;22.48;2.85;;;;;;;-146.27;100.00;84015.66;5083930;28;20027;-72
2023/03/26 00:51:04;;;;;;;20.05;2.88;;;;;;;-146.27;100.00;84001.59;5085740;28;20060;-72
2023/03/26 00:53:30;;;;;;;16.73;2.75;;;;;;;-146.27;100.00;83991.56;5086488;28;20470;-72
2023/03/26 00:55:59;;;;;;;31.98;3.67;;;;;;;-146.27;100.00;84021.69;5086204;28;20029;-72
2023/03/26 00:58:25;;;;;;;22.95;3.10;;;;;;;-146.27;100.00;83985.53;5090833;28;20063;-71
2023/03/26 01:00:57;;;;;;;32.10;4.00;;;;;;;-146.27;100.00;83977.47;5080204;28;20487;-72
2023/03/26 01:03:25;;;;;;;26.98;4.30;;;;;;;-146.27;100.00;84003.59;5091642;28;20433;-72
2023/03/26 01:05:57;;;;;;;34.53;3.63;;;;;;;-146.27;100.00;83983.50;5089853;28;20028;-74
2023/03/26 01:08:32;;;;;;;22.77;3.80;;;;;;;-146.27;100.00;83999.59;5087362;28;20410;-73
2023/03/26 01:11:06;;;;;;;29.02;4.43;;;;;;;-146.27;100.00;83995.56;5090387;28;20028;-72
2023/03/26 01:13:36;;;;;;;40.92;5.35;;;;;;;-146.27;100.00;84009.63;5088303;28;20084;-71
2023/03/26 01:16:08;;;;;;;43.90;5.70;;;;;;;-146.27;100.00;83983.50;5093020;28;20097;-72
2023/03/26 01:18:39;;;;;;;45.30;5.82;;;;;;;-146.27;100.00;83995.56;5086585;28;20383;-72
2023/03/26 01:21:08;;;;;;;46.78;6.15;;;;;;;-146.27;100.00;84027.72;5084395;28;20054;-72
2023/03/26 01:23:45;;;;;;;38.28;5.93;;;;;;;-146.27;100.00;83999.59;5079854;28;20024;-72
2023/03/26 01:26:22;;;;;;;41.90;5.05;;;;;;;-146.27;100.00;83985.53;5086918;28;20032;-73
2023/03/26 01:28:50;;;;;;;52.17;6.63;;;;;;;-146.27;100.00;84001.59;5090096;28;20028;-73
2023/03/26 01:31:35;;;;;;;37.60;6.82;;;;;;;-146.27;100.00;83999.59;5092082;28;20085;-72
2023/03/26 01:34:32;;;;;;;47.80;6.15;;;;;;;-146.27;100.00;83963.41;5087633;28;20037;-72
2023/03/26 01:37:26;;;;;;;55.30;6.35;;;;;;;-146.27;100.00;84031.75;5086487;28;20028;-72
2023/03/26 01:39:56;;;;;;;43.17;6.60;;;;;;;-146.27;100.00;84017.69;5083431;28;20072;-72
2023/03/26 01:42:29;;;;;;;44.45;5.75;;;;;;;-146.27;100.00;84051.84;5091129;28;20107;-73
2023/03/26 01:45:17;;;;;;;52.38;5.50;;;;;;;-146.27;100.00;84039.78;5079861;28;20027;-73
2023/03/26 01:47:44;;;;;;;55.72;6.05;;;;;;;-146.27;100.00;84033.75;5092568;28;20020;-73
2023/03/26 01:50:10;;;;;;;55.03;8.45;;;;;;;-146.27;100.00;84057.88;5081610;28;20036;-72
2023/03/26 01:52:35;;;;;;;39.72;6.30;;;;;;;-146.27;100.00;84061.88;5086737;28;20039;-72
2023/03/26 01:55:01;;;;;;;51.85;5.05;;;;;;;-146.27;100.00;84047.81;5094030;28;20024;-72
2023/03/26 01:57:54;;;;;;;54.58;5.90;;;;;;;-146.27;100.00;84116.16;5090135;28;20166;-72
2023/03/26 02:00:31;;;;;;;61.15;6.47;;;;;;;-146.27;100.00;84077.97;5088550;28;20032;-72
2023/03/26 02:03:25;;;;;;;40.03;5.72;;;;;;;-146.27;100.00;84079.97;5083168;28;20027;-72
2023/03/26 02:06:01;;;;;;;27.38;5.13;;;;;;;-146.27;100.00;84088.00;5092781;28;20020;-71
2023/03/26 02:08:40;;;;;;;42.38;5.25;;;;;;;-146.27;100.00;84098.06;5080644;28;20052;-71
2023/03/26 02:11:13;;;;;;;37.83;5.57;;;;;;;-146.27;100.00;84086.00;5083919;28;20081;-73
2023/03/26 02:13:41;;;;;;;52.42;6.72;;;;;;;-146.27;100.00;84096.06;5080427;28;20380;-72
2023/03/26 02:16:12;;;;;;;47.20;5.47;;;;;;;-146.27;100.00;84120.16;5077657;28;20039;-72
2023/03/26 02:18:39;;;;;;;48.80;6.20;;;;;;;-146.27;100.00;84140.25;5091476;28;20055;-72
2023/03/26 02:21:11;;;;;;;53.00;6.05;;;;;;;-146.27;100.00;84120.16;5088144;28;20024;-72
2023/03/26 02:23:39;;;;;;;42.70;5.65;;;;;;;-146.27;100.00;84144.28;5091757;28;20031;-74
2023/03/26 02:26:09;;;;;;;42.83;7.65;;;;;;;-146.27;100.00;84108.09;5089733;28;20036;-72
2023/03/26 02:28:35;;;;;;;49.95;6.97;;;;;;;-146.27;100.00;84100.06;5091108;28;20039;-72
2023/03/26 02:31:02;;;;;;;59.17;7.43;;;;;;;-146.27;100.00;84120.16;5093437;28;20085;-72
2023/03/26 02:33:28;;;;;;;44.88;7.20;;;;;;;-146.27;100.00;84140.25;5091404;28;20028;-72
2023/03/26 02:35:58;;;;;;;59.58;5.95;;;;;;;-146.27;100.00;84132.22;5090651;28;20056;-73
2023/03/26 02:38:25;;;;;;;59.22;6.95;;;;;;;-146.27;100.00;84100.06;5092998;28;20031;-72
2023/03/26 02:40:50;;;;;;;56.75;7.20;;;;;;;-146.27;100.00;84096.06;5084193;28;20078;-72
2023/03/26 02:43:16;;;;;;;45.25;6.55;;;;;;;-146.27;100.00;84096.06;5071297;28;20024;-72
2023/03/26 02:45:41;;;;;;;64.38;8.75;;;;;;;-146.27;100.00;84130.22;5092752;28;20111;-73
2023/03/26 02:48:07;;;;;;;65.45;7.30;;;;;;;-146.27;100.00;84110.13;5089437;28;20032;-73
2023/03/26 02:50:35;;;;;;;44.75;7.28;;;;;;;-146.27;100.00;84047.81;5087163;28;20052;-71
2023/03/26 02:53:01;;;;;;;60.00;9.35;;;;;;;-146.27;100.00;84106.09;5082626;28;20024;-73
2023/03/26 02:55:27;;;;;;;54.63;6.95;;;;;;;-146.27;100.00;84067.91;5086875;28;20532;-72
2023/03/26 02:57:52;;;;;;;67.18;7.63;;;;;;;-146.27;100.00;84096.06;5076809;28;20020;-72
2023/03/26 03:00:20;;;;;;;55.03;7.55;;;;;;;-146.27;100.00;84098.06;5072584;28;20077;-73
2023/03/26 03:02:46;;;;;;;56.22;8.75;;;;;;;-146.27;100.00;84075.94;5089435;28;20052;-72
2023/03/26 03:05:12;;;;;;;51.67;7.57;;;;;;;-146.27;100.00;84124.19;5090538;28;20054;-72
2023/03/26 03:07:39;;;;;;;53.47;9.25;;;;;;;-146.27;100.00;84106.09;5091396;28;20165;-72
2023/03/26 03:10:08;;;;;;;53.50;8.05;;;;;;;-146.27;100.00;84100.06;5088542;28;20019;-73
2023/03/26 03:12:34;;;;;;;50.63;8.93;;;;;;;-146.27;100.00;84100.06;5085585;28;20024;-73
2023/03/26 03:15:00;;;;;;;51.72;8.15;;;;;;;-146.27;100.00;84059.88;5078995;28;20514;-72
2023/03/26 03:17:25;;;;;;;52.63;9.40;;;;;;;-146.27;100.00;84081.97;5086136;28;20028;-73
2023/03/26 03:19:51;;;;;;;51.13;9.10;;;;;;;-146.27;100.00;84114.13;5080327;28;20020;-73
2023/03/26 03:22:16;;;;;;;57.25;9.88;;;;;;;-146.27;100.00;84114.13;5083495;28;20038;-72
2023/03/26 03:24:44;;;;;;;44.58;8.55;;;;;;;-146.27;100.00;84069.94;5088684;28;20025;-73
2023/03/26 03:27:09;;;;;;;51.25;10.85;;;;;;;-146.27;100.00;84098.06;5071265;28;20036;-72
2023/03/26 03:29:35;;;;;;;50.40;8.98;;;;;;;-146.27;100.00;84081.97;5073955;28;20488;-72
2023/03/26 03:32:00;;;;;;;56.80;9.70;;;;;;;-146.27;100.00;84073.94;5091280;28;20039;-73
2023/03/26 03:34:26;;;;;;;41.92;8.93;;;;;;;-146.27;100.00;84039.78;5087839;28;20034;-72
2023/03/26 03:36:51;;;;;;;61.70;9.30;;;;;;;-146.27;100.00;84047.81;5091808;28;20100;-72
2023/03/26 03:39:17;;;;;;;56.88;8.77;;;;;;;-146.27;100.00;84051.84;5085527;28;20116;-72
2023/03/26 03:41:42;;;;;;;55.55;9.73;;;;;;;-146.27;100.00;84051.84;5089668;28;20056;-72
2023/03/26 03:44:08;;;;;;;41.67;8.07;;;;;;;-146.27;100.00;84019.69;5078135;28;20410;-73
2023/03/26 03:46:33;;;;;;;46.70;7.85;;;;;;;-146.27;100.00;84067.91;5080396;28;20372;-72
2023/03/26 03:48:59;;;;;;;47.70;9.13;;;;;;;-146.27;100.00;84035.75;5083417;28;20518;-73
2023/03/26 03:51:24;;;;;;;48.90;8.13;;;;;;;-146.27;100.00;84132.22;5082643;28;20028;-72
2023/03/26 03:53:50;;;;;;;47.00;8.20;;;;;;;-146.27;100.00;84031.75;5089313;28;20466;-72
2023/03/26 03:56:17;;;;;;;59.65;9.15;;;;;;;-146.27;100.00;84055.84;5085083;28;20023;-73
2023/03/26 03:58:45;;;;;;;64.93;10.25;;;;;;;-146.27;100.00;84035.75;5081286;28;20032;-72
2023/03/26 04:01:12;;;;;;;52.35;9.40;;;;;;;-146.27;100.00;83993.56;5074567;28;20037;-72
2023/03/26 04:03:38;;;;;;;54.33;8.43;;;;;;;-146.27;100.00;84031.75;5083010;28;20038;-72
2023/03/26 04:06:07;;;;;;;41.60;8.85;;;;;;;-146.27;100.00;84007.63;5090879;28;20493;-72
2023/03/26 04:08:33;;;;;;;53.17;8.57;;;;;;;-146.27;100.00;84047.81;5089909;28;20067;-73
2023/03/26 04:10:59;;;;;;;51.35;8.60;;;;;;;-146.27;100.00;84132.22;5082496;28;20110;-72
2023/03/26 04:13:24;;;;;;;55.72;9.45;;;;;;;-146.27;100.00;84025.72;5081153;28;20037;-72
2023/03/26 04:15:50;;;;;;;61.83;9.52;;;;;;;-146.27;100.00;84063.91;5091671;28;20115;-72
2023/03/26 04:18:15;;;;;;;58.55;10.20;;;;;;;-146.27;100.00;84067.91;5091524;28;20535;-72
2023/03/26 04:20:45;;;;;;;60.03;10.48;;;;;;;-146.27;100.00;84031.75;5088760;28;20074;-72
2023/03/26 04:23:13;;;;;;;47.83;9.40;;;;;;;-146.27;100.00;84053.84;5089468;28;20086;-73
2023/03/26 04:25:47;;;;;;;49.50;9.38;;;;;;;-146.27;100.00;84023.69;5077800;28;20032;-73
2023/03/26 04:28:25;;;;;;;50.40;9.50;;;;;;;-146.27;100.00;84059.88;5087209;28;20028;-72
2023/03/26 04:30:53;;;;;;;42.20;9.35;;;;;;;-146.27;100.00;84027.72;5086085;28;20020;-72
2023/03/26 04:33:19;;;;;;;63.38;10.57;;;;;;;-146.27;100.00;84067.91;5088564;28;20028;-72
2023/03/26 04:35:47;;;;;;;42.15;9.70;;;;;;;-146.27;100.00;84092.03;5086321;28;20092;-73
2023/03/26 04:38:15;;;;;;;55.67;9.77;;;;;;;-146.27;100.00;84061.88;5093432;28;20479;-73
2023/03/26 04:40:46;;;;;;;47.67;8.70;;;;;;;-146.27;100.00;84061.88;5078216;28;20574;-72
2023/03/26 04:43:16;;;;;;;51.58;9.35;;;;;;;-146.27;100.00;84053.84;5080335;28;20052;-72
2023/03/26 04:45:42;;;;;;;42.33;8.73;;;;;;;-146.27;100.00;84079.97;5089330;28;20066;-72
2023/03/26 04:48:13;;;;;;;49.30;6.38;;;;;;;-146.27;100.00;84061.88;5094598;28;20032;-72
2023/03/26 04:50:40;;;;;;;60.08;7.63;;;;;;;-146.27;100.00;84071.94;5091249;28;20024;-72
2023/03/26 04:53:05;;;;;;;50.70;8.68;;;;;;;-146.27;100.00;84086.00;5084300;28;20032;-72
2023/03/26 04:55:50;;;;;;;30.85;7.00;;;;;;;-146.27;100.00;84092.03;5082184;28;20025;-72
2023/03/26 04:58:15;;;;;;;;;;;;;;;-146.27;100.00;84071.94;5083733;28;20050;-73
2023/03/26 05:00:42;;;;;;;51.22;8.15;;;;;;;-146.27;100.00;84088.00;5092942;28;19967;-72
2023/03/26 05:03:11;;;;;;;45.60;8.40;;;;;;;-146.27;100.00;84075.94;5084280;28;20096;-72
2023/03/26 05:05:37;;;;;;;46.20;8.00;;;;;;;-146.27;100.00;84086.00;5085178;28;20025;-72
2023/03/26 05:08:03;;;;;;;45.53;8.23;;;;;;;-146.27;100.00;84102.09;5087021;28;20032;-72
2023/03/26 05:10:29;;;;;;;43.05;8.07;;;;;;;-146.27;100.00;84043.81;5079243;28;20149;-72
2023/03/26 05:12:54;;;;;;;56.80;7.90;;;;;;;-146.27;100.00;84102.09;5080618;28;20085;-73
2023/03/26 05:15:20;;;;;;;35.92;7.85;;;;;;;-146.27;100.00;84136.25;5082462;28;20097;-73
2023/03/26 05:17:45;;;;;;;43.28;6.80;;;;;;;-146.27;100.00;84055.84;5079327;28;20050;-74
2023/03/26 05:20:22;;;;;;;39.78;7.30;;;;;;;-146.27;100.00;84116.16;5089066;28;20055;-72
2023/03/26 05:22:49;;;;;;;41.60;6.90;;;;;;;-146.27;100.00;84120.16;5077623;28;20024;-73
2023/03/26 05:25:16;;;;;;;48.47;7.43;;;;;;;-146.27;100.00;84075.94;5091992;28;20024;-73
2023/03/26 05:27:41;;;;;;;51.95;6.90;;;;;;;-146.27;100.00;84081.97;5087570;28;20037;-72
2023/03/26 05:30:08;;;;;;;36.50;6.25;;;;;;;-146.27;100.00;84124.19;5089476;28;20020;-71
2023/03/26 05:32:34;;;;;;;42.88;6.07;;;;;;;-146.27;100.00;84071.94;5076377;28;20081;-72
2023/03/26 05:35:00;;;;;;;38.65;6.55;;;;;;;-146.27;100.00;84128.22;5081472;28;20036;-71
2023/03/26 05:37:29;;;;;;;53.00;7.13;;;;;;;-146.27;100.00;84160.38;5079100;28;20048;-72
2023/03/26 05:39:56;;;;;;;55.20;7.90;;;;;;;-146.27;100.00;84130.22;5084613;28;20020;-72
2023/03/26 05:42:22;;;;;;;33.67;6.45;;;;;;;-146.27;100.00;84152.31;5089897;28;20077;-72
2023/03/26 05:44:47;;;;;;;38.17;6.38;;;;;;;-146.27;100.00;84120.16;5086285;28;20023;-72
2023/03/26 05:47:13;;;;;;;33.72;6.45;;;;;;;-146.27;100.00;84144.28;5078199;28;20462;-73
2023/03/26 05:49:38;;;;;;;43.33;7.75;;;;;;;-146.27;100.00;84158.34;5083479;28;20028;-74
2023/03/26 05:52:04;;;;;;;44.25;6.05;;;;;;;-146.27;100.00;84075.94;5080603;28;20028;-72
2023/03/26 05:54:29;;;;;;;48.20;6.85;;;;;;;-146.27;100.00;84118.16;5081228;28;20039;-73
2023/03/26 05:56:56;;;;;;;43.20;7.05;;;;;;;-146.27;100.00;84156.34;5087715;28;20055;-73
2023/03/26 05:59:22;;;;;;;43.15;6.05;;;;;;;-146.27;100.00;84120.16;5086752;28;20024;-72
2023/03/26 06:01:47;;;;;;;40.92;6.45;;;;;;;-146.27;100.00;84108.09;5084783;28;20059;-72
2023/03/26 06:04:14;;;;;;;47.35;6.38;;;;;;;-146.27;100.00;84126.19;5084737;28;20062;-73
2023/03/26 06:06:41;;;;;;;47.47;6.82;;;;;;;-146.27;100.00;84144.28;5086799;28;20036;-74
2023/03/26 06:09:06;;;;;;;44.13;5.95;;;;;;;-146.27;100.00;84148.31;5079864;28;20052;-74
2023/03/26 06:11:32;;;;;;;38.17;6.22;;;;;;;-146.27;100.00;84100.06;5090095;28;20350;-73
2023/03/26 06:13:58;;;;;;;48.17;6.45;;;;;;;-146.27;100.00;84132.22;5081466;28;20101;-72
2023/03/26 06:16:24;;;;;;;35.92;5.72;;;;;;;-146.27;100.00;84102.09;5080330;28;20032;-74
2023/03/26 06:18:50;;;;;;;40.17;6.82;;;;;;;-146.27;100.00;84124.19;5086345;28;20042;-71
2023/03/26 06:21:16;;;;;;;40.70;6.75;;;;;;;-146.27;100.00;84144.28;5088523;28;20095;-72
2023/03/26 06:23:42;;;;;;;53.08;8.85;;;;;;;-146.27;100.00;84090.03;5075460;28;20031;-72
2023/03/26 06:26:09;;;;;;;32.97;6.93;;;;;;;-146.27;100.00;84116.16;5085957;28;20023;-71
2023/03/26 06:28:35;;;;;;;41.10;6.18;;;;;;;-146.27;100.00;84126.19;5078314;28;20982;-72
2023/03/26 06:31:01;;;;;;;43.70;6.80;;;;;;;-146.27;100.00;84136.25;5080922;28;20352;-72
2023/03/26 06:33:27;;;;;;;44.03;6.95;;;;;;;-146.27;100.00;84130.22;5083963;28;20027;-73
2023/03/26 06:35:52;;;;;;;41.53;7.00;;;;;;;-146.27;100.00;84124.19;5081202;28;20043;-73
2023/03/26 06:38:18;;;;;;;41.53;7.35;;;;;;;-146.27;100.00;84114.13;5078077;28;20107;-73
2023/03/26 06:40:43;;;;;;;40.05;7.40;;;;;;;-146.27;100.00;84124.19;5074944;28;20546;-73
2023/03/26 06:43:09;;;;;;;47.22;8.95;;;;;;;-146.27;100.00;84071.94;5083894;28;20119;-72
2023/03/26 06:45:34;;;;;;;41.00;7.45;;;;;;;-146.27;100.00;84108.09;5084285;28;20024;-73
2023/03/26 06:47:59;;;;;;;43.83;8.77;;;;;;;-146.27;100.00;84118.16;5088348;28;20081;-72
2023/03/26 06:50:26;;;;;;;49.47;8.07;;;;;;;-146.27;100.00;84096.06;5081637;28;20016;-74
2023/03/26 06:52:53;;;;;;;37.70;8.57;;;;;;;-146.27;100.00;84104.09;5079114;28;20437;-74
2023/03/26 06:55:18;;;;;;;56.92;9.65;;;;;;;-146.27;100.00;84073.94;5083916;28;20046;-71
2023/03/26 06:57:50;;;;;;;50.92;8.43;;;;;;;-146.27;100.00;84108.09;5077312;28;20259;-72
2023/03/26 07:00:16;;;;;;;49.22;8.77;;;;;;;-146.27;100.00;84118.16;5079408;28;20051;-73
2023/03/26 07:02:41;;;;;;;35.40;7.70;;;;;;;-146.27;100.00;84088.00;5083599;28;20024;-72
2023/03/26 07:05:07;;;;;;;36.08;8.40;;;;;;;-146.27;100.00;84084.00;5080176;28;20038;-73
2023/03/26 07:07:33;;;;;;;43.08;8.90;;;;;;;-146.27;100.00;84112.13;5087846;28;20391;-73
2023/03/26 07:09:58;;;;;;;40.38;8.45;;;;;;;-146.27;100.00;84073.94;5080211;28;20028;-73
2023/03/26 07:12:25;;;;;;;41.83;9.82;;;;;;;-146.27;100.00;84100.06;5088089;28;20056;-73
2023/03/26 07:14:50;;;;;;;50.20;9.43;;;;;;;-146.27;100.00;84067.91;5083900;28;20028;-73
2023/03/26 07:17:16;;;;;;;35.88;8.32;;;;;;;-146.27;100.00;84100.06;5082380;28;20028;-73
2023/03/26 07:19:41;;;;;;;55.10;10.68;;;;;;;-146.27;100.00;84106.09;5083276;28;20028;-73
2023/03/26 07:22:14;;;;;;;54.75;9.02;;;;;;;-146.27;100.00;84079.97;5080603;28;21235;-72
2023/03/26 07:24:40;;;;;;;39.25;9.48;;;;;;;-146.27;100.00;84116.16;5079233;28;20390;-73
2023/03/26 07:27:28;;;;;;;45.92;10.07;;;;;;;-146.27;100.00;84043.81;5072173;28;20020;-72
2023/03/26 07:30:02;;;;;;;35.05;9.23;;;;;;;-146.27;100.00;84090.03;5086113;28;20024;-72
2023/03/26 07:32:51;;;;;;;45.80;9.85;;;;;;;-146.27;100.00;84104.09;5082545;28;20483;-72
2023/03/26 07:35:29;;;;;;;51.17;10.70;;;;;;;-146.27;100.00;84055.84;5080055;28;20047;-73
2023/03/26 07:37:58;;;;;;;44.45;10.50;;;;;;;-146.27;100.00;84077.97;5078624;28;20497;-73
2023/03/26 07:40:44;;;;;;;51.10;11.65;;;;;;;-146.27;100.00;84092.03;5078396;28;20036;-73
2023/03/26 07:43:28;;;;;;;34.85;10.30;;;;;;;-146.27;100.00;84096.06;5078342;28;20031;-73
2023/03/26 07:45:55;;;;;;;32.45;10.43;;;;;;;-146.27;100.00;84084.00;5082806;28;20028;-74
2023/03/26 07:48:26;;;;;;;41.38;9.65;;;;;;;-146.27;100.00;84124.19;5080812;28;20054;-72
2023/03/26 07:50:52;;;;;;;36.67;10.95;;;;;;;-146.27;100.00;84065.91;5079766;28;20379;-73
2023/03/26 07:53:18;;;;;;;53.13;11.07;;;;;;;-146.27;100.00;84102.09;5092000;28;20035;-70
2023/03/26 07:56:05;;;;;;;43.78;11.25;;;;;;;-146.27;100.00;84069.94;5079207;28;20524;-69
2023/03/26 07:58:42;;;;;;;51.83;11.45;;;;;;;-146.27;100.00;84069.94;5086758;28;20133;-72
2023/03/26 08:01:30;;;;;;;50.17;12.02;;;;;;;-146.27;100.00;84088.00;5087408;28;20082;-72
2023/03/26 08:04:26;;;;;;;45.30;11.63;;;;;;;-146.27;100.00;84061.88;5085428;28;20489;-72
2023/03/26 08:06:58;;;;;;;37.67;9.48;;;;;;;-146.27;100.00;84073.94;5082974;28;20059;-72
2023/03/26 08:09:37;;;;;;;36.63;9.60;;;;;;;-146.27;100.00;84067.91;5081789;28;20399;-72
2023/03/26 08:12:21;;;;;;;50.30;11.63;;;;;;;-146.27;100.00;84047.81;5082511;28;20054;-72
2023/03/26 08:15:13;;;;;;;40.65;10.07;;;;;;;-146.27;100.00;84071.94;5086293;28;20420;-73
2023/03/26 08:17:45;;;;;;;41.22;9.98;;;;;;;-146.27;100.00;84045.81;5081420;28;20049;-72
2023/03/26 08:20:30;;;;;;;37.17;9.23;;;;;;;-146.27;100.00;84059.88;5088209;28;20036;-73
2023/03/26 08:23:22;;;;;;;49.38;9.20;;;;;;;-146.27;100.00;84077.97;5082501;28;20126;-70
2023/03/26 08:25:58;;;;;;;45.40;10.35;;;;;;;-146.27;100.00;84069.94;5088603;28;20028;-70
2023/03/26 08:28:32;;;;;;;48.25;10.25;;;;;;;-146.27;100.00;84071.94;5093111;28;20035;-68
2023/03/26 08:31:01;;;;;;;44.28;9.77;;;;;;;-146.27;100.00;84049.84;5087981;28;20028;-69
2023/03/26 08:33:27;;;;;;;40.90;10.48;;;;;;;-146.27;100.00;84035.75;5088934;28;20028;-70
2023/03/26 08:35:52;;;;;;;46.97;11.32;;;;;;;-146.27;100.00;84043.81;5087263;28;20445;-69
2023/03/26 08:38:19;;;;;;;40.05;12.18;;;;;;;-146.27;100.00;84051.84;5091612;28;20103;-69
2023/03/26 08:40:50;;;;;;;41.30;12.40;;;;;;;-146.27;100.00;84035.75;5093240;28;20036;-69
2023/03/26 08:43:27;;;;;;;40.35;10.77;;;;;;;-146.27;100.00;84051.84;5084201;28;20116;-68
2023/03/26 08:46:32;;;;;;;46.47;12.43;;;;;;;-146.27;100.00;84055.84;5079640;28;20031;-68
2023/03/26 08:49:52;;;;;;;42.28;14.38;;;;;;;-146.27;100.00;84029.72;5084336;28;20618;-69
2023/03/26 08:52:21;;;;;;;45.20;14.23;;;;;;;-146.27;100.00;84019.69;5027037;28;20410;-69
2023/03/26 08:54:58;;;;;;;46.97;14.88;;;;;;;-146.27;100.00;84033.75;5069246;28;20044;-69
2023/03/26 08:57:44;;;;;;;50.55;14.63;;;;;;;-146.27;100.00;84057.88;5085635;28;20106;-69
2023/03/26 09:00:23;;;;;;;65.65;16.55;;;;;;;-146.27;100.00;84041.78;5085135;28;20438;-69
2023/03/26 09:03:07;;;;;;;43.47;15.85;;;;;;;-146.27;100.00;84049.84;5084471;28;20028;-69
2023/03/26 09:06:23;;;;;;;36.65;11.75;;;;;;;-146.27;100.00;84079.97;5086132;28;20023;-69
2023/03/26 09:09:09;;;;;;;32.53;11.10;;;;;;;-146.27;100.00;84075.94;5059844;28;20047;-69
2023/03/26 09:12:05;;;;;;;26.83;12.48;;;;;;;-146.27;100.00;84100.06;5080703;28;20047;-69
2023/03/26 09:14:52;;;;;;;37.80;11.23;;;;;;;-146.27;100.00;84100.06;5083098;28;20024;-69
2023/03/26 09:17:39;;;;;;;43.20;13.43;;;;;;;-146.27;100.00;84079.97;5081759;28;20081;-69
2023/03/26 09:20:19;;;;;;;52.78;17.35;;;;;;;-146.27;100.00;84126.19;5079283;28;20506;-71
2023/03/26 09:23:15;;;;;;;47.13;15.70;;;;;;;-146.27;100.00;84079.97;5083014;28;20339;-67
2023/03/26 09:26:00;;;;;;;51.95;17.25;;;;;;;-146.27;100.00;84128.22;5078971;28;20039;-68
2023/03/26 09:29:15;;;;;;;56.53;16.60;;;;;;;-146.27;100.00;84120.16;5082045;28;20190;-68
2023/03/26 09:32:01;;;;;;;45.25;15.35;;;;;;;-146.27;100.00;84108.09;5080780;28;20310;-68
2023/03/26 09:34:38;;;;;;;54.47;16.48;;;;;;;-146.27;100.00;84156.34;5083025;28;20089;-68
2023/03/26 09:37:17;;;;;;;46.60;15.90;;;;;;;-146.27;100.00;84146.28;5080855;28;20024;-68
2023/03/26 09:39:52;;;;;;;38.05;13.95;;;;;;;-146.27;100.00;84160.38;5082477;28;20024;-68
2023/03/26 09:43:09;;;;;;;36.45;13.65;;;;;;;-146.27;100.00;84124.19;5082976;28;20363;-68
2023/03/26 09:45:42;;;;;;;39.45;13.35;;;;;;;-146.27;100.00;84140.25;5058951;28;20529;-67
2023/03/26 09:48:29;;;;;;;43.28;12.98;;;;;;;-146.27;100.00;84100.06;5083316;28;20468;-67
2023/03/26 09:51:09;;;;;;;40.35;12.45;;;;;;;-146.27;100.00;84136.25;5083771;28;20376;-67
2023/03/26 09:53:38;;;;;;;38.05;12.50;;;;;;;-146.27;100.00;84140.25;5082284;28;20441;-68
2023/03/26 09:56:07;;;;;;;35.13;11.60;;;;;;;-146.27;100.00;84096.06;5087465;28;20142;-68
2023/03/26 09:59:10;;;;;;;34.05;10.40;;;;;;;-146.27;100.00;84104.09;5086855;28;20027;-68
2023/03/26 10:01:46;;;;;;;40.33;11.65;;;;;;;-146.27;100.00;84108.09;5081974;28;20452;-68
2023/03/26 10:04:37;;;;;;;35.60;10.55;;;;;;;-146.27;100.00;84114.13;5086379;28;20043;-68
2023/03/26 10:07:29;;;;;;;27.83;9.68;;;;;;;-146.27;100.00;84128.22;5080935;28;20433;-68
2023/03/26 10:10:07;;;;;;;27.90;8.10;;;;;;;-146.27;100.00;84051.84;5084116;28;20536;-71
2023/03/26 10:12:58;;;;;;;20.45;7.70;;;;;;;-146.27;100.00;84104.09;5077079;28;20105;-71
2023/03/26 10:15:33;;;;;;;17.15;6.75;;;;;;;-146.27;100.00;84102.09;5079929;28;20123;-72
2023/03/26 10:18:07;;;;;;;19.58;5.10;;;;;;;-146.27;100.00;84092.03;5082518;28;20066;-71
2023/03/26 10:20:39;;;;;;;15.52;4.32;;;;;;;-146.27;100.00;84162.38;5085983;28;20028;-71
2023/03/26 10:23:14;;;;;;;21.73;3.80;;;;;;;-146.27;100.00;84144.28;5085873;28;20024;-71
2023/03/26 10:26:10;;;;;;;24.65;3.95;;;;;;;-146.27;100.00;84170.41;5085152;28;20032;-71
2023/03/26 10:28:58;;;;;;;24.83;4.70;;;;;;;-146.27;100.00;84148.31;5068281;28;20043;-71
2023/03/26 10:31:33;;;;;;;23.33;4.30;;;;;;;-146.27;100.00;84170.41;5080861;28;20028;-71
2023/03/26 10:34:26;;;;;;;28.77;3.80;;;;;;;-146.27;100.00;84176.44;5080724;28;20074;-72
2023/03/26 10:37:18;;;;;;;21.02;3.95;;;;;;;-146.27;100.00;84132.22;5081378;28;20062;-71
2023/03/26 10:40:15;;;;;;;16.63;3.65;;;;;;;-146.27;100.00;84120.16;5087803;28;20024;-72
2023/03/26 10:42:59;;;;;;;20.08;4.35;;;;;;;-146.27;100.00;84120.16;5080605;28;20116;-71
2023/03/26 10:45:36;;;;;;;;;;;;;;;-146.27;100.00;84112.13;5091581;28;20131;-72
2023/03/26 10:48:35;;;;;;;20.48;3.53;;;;;;;-146.27;100.00;84128.22;5084496;28;19912;-71
2023/03/26 10:51:03;;;;;;;24.90;5.45;;;;;;;-146.27;100.00;84106.09;5086895;28;20480;-73
2023/03/26 10:53:46;;;;;;;20.25;3.97;;;;;;;-146.27;100.00;84110.13;5086537;28;20032;-72
2023/03/26 10:56:24;;;;;;;20.25;3.85;;;;;;;-146.27;100.00;84144.28;5087029;28;20387;-72
2023/03/26 10:58:50;;;;;;;20.25;4.10;;;;;;;-146.27;100.00;84116.16;5082064;28;20382;-74
2023/03/26 11:01:43;;;;;;;19.15;3.40;;;;;;;-146.27;100.00;84152.31;5083906;28;20103;-73
2023/03/26 11:04:21;;;;;;;24.50;3.60;;;;;;;-146.27;100.00;84106.09;5086731;28;20032;-74
2023/03/26 11:06:52;;;;;;;24.17;4.63;;;;;;;-146.27;100.00;84136.25;5083528;28;20120;-73
2023/03/26 11:09:43;;;;;;;23.52;3.55;;;;;;;-146.27;100.00;84128.22;5083018;28;20043;-73
2023/03/26 11:12:17;;;;;;;22.30;4.75;;;;;;;-146.27;100.00;84166.38;5089091;28;20028;-73
2023/03/26 11:15:13;;;;;;;21.45;4.22;;;;;;;-146.27;100.00;84116.16;5082714;28;20166;-73
2023/03/26 11:17:38;;;;;;;25.80;3.80;;;;;;;-146.27;100.00;84160.38;5078513;28;20032;-73
2023/03/26 11:20:08;;;;;;;14.63;3.75;;;;;;;-146.27;100.00;84112.13;5083361;28;20469;-73
2023/03/26 11:22:37;;;;;;;23.85;4.63;;;;;;;-146.27;100.00;84144.28;5082906;28;20029;-75
2023/03/26 11:25:23;;;;;;;18.95;3.33;;;;;;;-146.27;100.00;84084.00;5081793;28;20111;-75